sensor_id;sensor_type;location;lat;lon;timestamp;temperature;humidity
15556;DHT22;7879;48.660;9.116;2023-03-11T00:00:21;2.30;99.90
15556;DHT22;7879;48.660;9.116;2023-03-11T00:02:51;2.30;99.90
15556;DHT22;7879;48.660;9.116;2023-03-11T00:05:21;2.20;99.90
15556;DHT22;7879;48.660;9.116;2023-03-11T00:07:49;2.20;99.90
15556;DHT22;7879;48.660;9.116;2023-03-11T00:10:19;2.20;99.90
15556;DHT22;7879;48.660;9.116;2023-03-11T00:12:46;2.20;99.90
15556;DHT22;7879;48.660;9.116;2023-03-11T00:15:14;2.10;99.90
15556;DHT22;7879;48.660;9.116;2023-03-11T00:17:41;2.10;99.90
15556;DHT22;7879;48.660;9.116;2023-03-11T00:20:20;2.10;99.90
15556;DHT22;7879;48.660;9.116;2023-03-11T00:22:48;2.00;99.90
15556;DHT22;7879;48.660;9.116;2023-03-11T00:25:17;2.00;99.90
15556;DHT22;7879;48.660;9.116;2023-03-11T00:27:44;2.00;99.90
15556;DHT22;7879;48.660;9.116;2023-03-11T00:30:12;1.90;99.90
15556;DHT22;7879;48.660;9.116;2023-03-11T00:32:40;1.90;99.90
15556;DHT22;7879;48.660;9.116;2023-03-11T00:35:09;1.90;99.90
15556;DHT22;7879;48.660;9.116;2023-03-11T00:37:36;1.90;99.90
15556;DHT22;7879;48.660;9.116;2023-03-11T00:40:04;1.90;99.90
15556;DHT22;7879;48.660;9.116;2023-03-11T00:42:34;1.90;99.90
15556;DHT22;7879;48.660;9.116;2023-03-11T00:45:01;1.80;99.90
15556;DHT22;7879;48.660;9.116;2023-03-11T00:47:27;1.80;99.90
15556;DHT22;7879;48.660;9.116;2023-03-11T00:49:54;1.90;99.90
15556;DHT22;7879;48.660;9.116;2023-03-11T00:52:21;1.90;99.90
15556;DHT22;7879;48.660;9.116;2023-03-11T00:54:50;1.90;99.90
15556;DHT22;7879;48.660;9.116;2023-03-11T00:57:16;2.00;99.90
15556;DHT22;7879;48.660;9.116;2023-03-11T00:59:43;1.90;99.90
15556;DHT22;7879;48.660;9.116;2023-03-11T01:02:10;2.00;99.90
15556;DHT22;7879;48.660;9.116;2023-03-11T01:04:37;2.00;99.90
15556;DHT22;7879;48.660;9.116;2023-03-11T01:07:04;2.00;99.90
15556;DHT22;7879;48.660;9.116;2023-03-11T01:09:31;2.00;99.90
15556;DHT22;7879;48.660;9.116;2023-03-11T01:11:58;2.00;99.90
15556;DHT22;7879;48.660;9.116;2023-03-11T01:14:24;2.00;99.90
15556;DHT22;7879;48.660;9.116;2023-03-11T01:16:51;2.00;99.90
15556;DHT22;7879;48.660;9.116;2023-03-11T01:19:19;2.00;99.90
15556;DHT22;7879;48.660;9.116;2023-03-11T01:21:46;2.00;99.90
15556;DHT22;7879;48.660;9.116;2023-03-11T01:24:13;2.00;99.90
15556;DHT22;7879;48.660;9.116;2023-03-11T01:26:40;2.00;99.90
15556;DHT22;7879;48.660;9.116;2023-03-11T01:29:06;2.00;99.90
15556;DHT22;7879;48.660;9.116;2023-03-11T01:31:33;1.90;99.90
15556;DHT22;7879;48.660;9.116;2023-03-11T01:34:00;1.90;99.90
15556;DHT22;7879;48.660;9.116;2023-03-11T01:36:27;1.90;99.90
15556;DHT22;7879;48.660;9.116;2023-03-11T01:38:53;1.90;99.90
15556;DHT22;7879;48.660;9.116;2023-03-11T01:41:20;1.90;99.90
15556;DHT22;7879;48.660;9.116;2023-03-11T01:43:50;1.90;99.90
15556;DHT22;7879;48.660;9.116;2023-03-11T01:46:26;1.90;99.90
15556;DHT22;7879;48.660;9.116;2023-03-11T01:48:55;1.90;99.90
15556;DHT22;7879;48.660;9.116;2023-03-11T01:51:36;1.90;99.90
15556;DHT22;7879;48.660;9.116;2023-03-11T01:54:08;1.80;99.90
15556;DHT22;7879;48.660;9.116;2023-03-11T01:56:37;1.80;99.90
15556;DHT22;7879;48.660;9.116;2023-03-11T01:59:06;1.80;99.90
15556;DHT22;7879;48.660;9.116;2023-03-11T02:01:35;1.80;99.90
15556;DHT22;7879;48.660;9.116;2023-03-11T02:04:07;1.70;99.90
15556;DHT22;7879;48.660;9.116;2023-03-11T02:06:34;1.70;99.90
15556;DHT22;7879;48.660;9.116;2023-03-11T02:09:01;1.70;99.90
15556;DHT22;7879;48.660;9.116;2023-03-11T02:11:29;1.70;99.90
15556;DHT22;7879;48.660;9.116;2023-03-11T02:14:01;1.70;99.90
15556;DHT22;7879;48.660;9.116;2023-03-11T02:16:28;1.70;99.90
15556;DHT22;7879;48.660;9.116;2023-03-11T02:18:57;1.70;99.90
15556;DHT22;7879;48.660;9.116;2023-03-11T02:21:31;1.70;99.90
15556;DHT22;7879;48.660;9.116;2023-03-11T02:25:10;1.60;99.90
15556;DHT22;7879;48.660;9.116;2023-03-11T02:27:08;1.60;99.90
15556;DHT22;7879;48.660;9.116;2023-03-11T02:29:36;1.60;99.90
15556;DHT22;7879;48.660;9.116;2023-03-11T02:32:07;1.60;99.90
15556;DHT22;7879;48.660;9.116;2023-03-11T02:34:36;1.60;99.90
15556;DHT22;7879;48.660;9.116;2023-03-11T02:37:06;1.50;99.90
15556;DHT22;7879;48.660;9.116;2023-03-11T02:39:39;1.50;99.90
15556;DHT22;7879;48.660;9.116;2023-03-11T02:44:41;1.40;99.90
15556;DHT22;7879;48.660;9.116;2023-03-11T02:47:10;1.40;99.90
15556;DHT22;7879;48.660;9.116;2023-03-11T02:49:37;1.30;99.90
15556;DHT22;7879;48.660;9.116;2023-03-11T02:52:04;1.30;99.90
15556;DHT22;7879;48.660;9.116;2023-03-11T02:54:31;1.30;99.90
15556;DHT22;7879;48.660;9.116;2023-03-11T02:56:59;1.20;99.90
15556;DHT22;7879;48.660;9.116;2023-03-11T02:59:26;1.20;99.90
15556;DHT22;7879;48.660;9.116;2023-03-11T03:01:53;1.20;99.90
15556;DHT22;7879;48.660;9.116;2023-03-11T03:04:20;1.20;99.90
15556;DHT22;7879;48.660;9.116;2023-03-11T03:06:47;1.10;99.90
15556;DHT22;7879;48.660;9.116;2023-03-11T03:09:13;1.10;99.90
15556;DHT22;7879;48.660;9.116;2023-03-11T03:11:40;1.10;99.90
15556;DHT22;7879;48.660;9.116;2023-03-11T03:14:07;1.10;99.90
15556;DHT22;7879;48.660;9.116;2023-03-11T03:16:33;1.00;99.90
15556;DHT22;7879;48.660;9.116;2023-03-11T03:19:00;0.90;99.90
15556;DHT22;7879;48.660;9.116;2023-03-11T03:21:27;0.90;99.90
15556;DHT22;7879;48.660;9.116;2023-03-11T03:23:54;0.80;99.90
15556;DHT22;7879;48.660;9.116;2023-03-11T03:26:21;0.80;99.90
15556;DHT22;7879;48.660;9.116;2023-03-11T03:28:47;0.70;99.90
15556;DHT22;7879;48.660;9.116;2023-03-11T03:31:14;0.70;99.90
15556;DHT22;7879;48.660;9.116;2023-03-11T03:33:41;0.70;99.90
15556;DHT22;7879;48.660;9.116;2023-03-11T03:36:10;0.70;99.90
15556;DHT22;7879;48.660;9.116;2023-03-11T03:38:37;0.70;99.90
15556;DHT22;7879;48.660;9.116;2023-03-11T03:41:04;0.70;99.90
15556;DHT22;7879;48.660;9.116;2023-03-11T03:43:31;0.70;99.90
15556;DHT22;7879;48.660;9.116;2023-03-11T03:46:00;0.70;99.90
15556;DHT22;7879;48.660;9.116;2023-03-11T03:48:28;0.70;99.90
15556;DHT22;7879;48.660;9.116;2023-03-11T03:50:55;0.60;99.90
15556;DHT22;7879;48.660;9.116;2023-03-11T03:53:22;0.70;99.90
15556;DHT22;7879;48.660;9.116;2023-03-11T03:55:49;0.60;99.90
15556;DHT22;7879;48.660;9.116;2023-03-11T03:58:16;0.60;99.90
15556;DHT22;7879;48.660;9.116;2023-03-11T04:00:43;0.60;99.90
15556;DHT22;7879;48.660;9.116;2023-03-11T04:03:09;0.60;99.90
15556;DHT22;7879;48.660;9.116;2023-03-11T04:05:36;0.50;99.90
15556;DHT22;7879;48.660;9.116;2023-03-11T04:08:03;0.50;99.90
15556;DHT22;7879;48.660;9.116;2023-03-11T04:10:30;0.50;99.90
15556;DHT22;7879;48.660;9.116;2023-03-11T04:12:57;0.40;99.90
15556;DHT22;7879;48.660;9.116;2023-03-11T04:15:24;0.30;99.90
15556;DHT22;7879;48.660;9.116;2023-03-11T04:17:51;0.30;99.90
15556;DHT22;7879;48.660;9.116;2023-03-11T04:20:18;0.20;99.90
15556;DHT22;7879;48.660;9.116;2023-03-11T04:22:45;0.20;99.90
15556;DHT22;7879;48.660;9.116;2023-03-11T04:25:11;0.20;99.90
15556;DHT22;7879;48.660;9.116;2023-03-11T04:27:38;0.20;99.90
15556;DHT22;7879;48.660;9.116;2023-03-11T04:30:08;0.20;99.90
15556;DHT22;7879;48.660;9.116;2023-03-11T04:32:35;0.30;99.90
15556;DHT22;7879;48.660;9.116;2023-03-11T04:35:04;0.20;99.90
15556;DHT22;7879;48.660;9.116;2023-03-11T04:37:30;0.10;99.90
15556;DHT22;7879;48.660;9.116;2023-03-11T04:39:57;0.00;99.90
15556;DHT22;7879;48.660;9.116;2023-03-11T04:42:24;0.10;99.90
15556;DHT22;7879;48.660;9.116;2023-03-11T04:44:51;0.10;99.90
15556;DHT22;7879;48.660;9.116;2023-03-11T04:47:17;0.10;99.90
15556;DHT22;7879;48.660;9.116;2023-03-11T04:49:44;0.00;99.90
15556;DHT22;7879;48.660;9.116;2023-03-11T04:52:11;-0.10;99.90
15556;DHT22;7879;48.660;9.116;2023-03-11T04:54:38;0.00;99.90
15556;DHT22;7879;48.660;9.116;2023-03-11T04:57:05;0.00;99.90
15556;DHT22;7879;48.660;9.116;2023-03-11T04:59:32;-0.10;99.90
15556;DHT22;7879;48.660;9.116;2023-03-11T05:01:59;0.00;99.90
15556;DHT22;7879;48.660;9.116;2023-03-11T05:04:26;-0.10;99.90
15556;DHT22;7879;48.660;9.116;2023-03-11T05:06:53;-0.20;99.90
15556;DHT22;7879;48.660;9.116;2023-03-11T05:09:19;-0.20;99.90
15556;DHT22;7879;48.660;9.116;2023-03-11T05:11:46;-0.20;99.90
15556;DHT22;7879;48.660;9.116;2023-03-11T05:14:13;-0.30;99.90
15556;DHT22;7879;48.660;9.116;2023-03-11T05:16:40;-0.40;99.90
15556;DHT22;7879;48.660;9.116;2023-03-11T05:19:06;-0.30;99.90
15556;DHT22;7879;48.660;9.116;2023-03-11T05:21:53;-0.40;99.90
15556;DHT22;7879;48.660;9.116;2023-03-11T05:24:20;-0.40;99.90
15556;DHT22;7879;48.660;9.116;2023-03-11T05:26:47;-0.40;99.90
15556;DHT22;7879;48.660;9.116;2023-03-11T05:29:14;-0.40;99.90
15556;DHT22;7879;48.660;9.116;2023-03-11T05:31:40;-0.40;99.90
15556;DHT22;7879;48.660;9.116;2023-03-11T05:34:07;-0.50;99.90
15556;DHT22;7879;48.660;9.116;2023-03-11T05:36:34;-0.50;99.90
15556;DHT22;7879;48.660;9.116;2023-03-11T05:39:01;-0.40;99.90
15556;DHT22;7879;48.660;9.116;2023-03-11T05:41:28;-0.40;99.90
15556;DHT22;7879;48.660;9.116;2023-03-11T05:43:54;-0.40;99.90
15556;DHT22;7879;48.660;9.116;2023-03-11T05:46:21;-0.40;99.90
15556;DHT22;7879;48.660;9.116;2023-03-11T05:48:48;-0.40;99.90
15556;DHT22;7879;48.660;9.116;2023-03-11T05:51:15;-0.40;99.90
15556;DHT22;7879;48.660;9.116;2023-03-11T05:53:43;-0.40;99.90
15556;DHT22;7879;48.660;9.116;2023-03-11T05:56:14;-0.40;99.90
15556;DHT22;7879;48.660;9.116;2023-03-11T05:58:41;-0.50;99.90
15556;DHT22;7879;48.660;9.116;2023-03-11T06:01:10;-0.60;99.90
15556;DHT22;7879;48.660;9.116;2023-03-11T06:03:38;-0.60;99.90
15556;DHT22;7879;48.660;9.116;2023-03-11T06:06:07;-0.50;99.90
15556;DHT22;7879;48.660;9.116;2023-03-11T06:08:35;-0.50;99.90
15556;DHT22;7879;48.660;9.116;2023-03-11T06:11:03;-0.40;99.90
15556;DHT22;7879;48.660;9.116;2023-03-11T06:13:31;-0.40;99.90
15556;DHT22;7879;48.660;9.116;2023-03-11T06:15:58;-0.40;99.90
15556;DHT22;7879;48.660;9.116;2023-03-11T06:18:25;-0.40;99.90
15556;DHT22;7879;48.660;9.116;2023-03-11T06:20:53;-0.40;99.90
15556;DHT22;7879;48.660;9.116;2023-03-11T06:23:22;-0.50;99.90
15556;DHT22;7879;48.660;9.116;2023-03-11T06:26:00;-0.50;99.90
15556;DHT22;7879;48.660;9.116;2023-03-11T06:28:28;-0.50;99.90
15556;DHT22;7879;48.660;9.116;2023-03-11T06:30:54;-0.60;99.90
15556;DHT22;7879;48.660;9.116;2023-03-11T06:33:24;-0.60;99.90
15556;DHT22;7879;48.660;9.116;2023-03-11T06:36:01;-0.50;99.90
15556;DHT22;7879;48.660;9.116;2023-03-11T06:38:29;-0.50;99.90
15556;DHT22;7879;48.660;9.116;2023-03-11T06:41:03;-0.50;99.90
15556;DHT22;7879;48.660;9.116;2023-03-11T06:43:31;-0.50;99.90
15556;DHT22;7879;48.660;9.116;2023-03-11T06:45:59;-0.50;99.90
15556;DHT22;7879;48.660;9.116;2023-03-11T06:48:27;-0.50;99.90
15556;DHT22;7879;48.660;9.116;2023-03-11T06:50:58;-0.40;99.90
15556;DHT22;7879;48.660;9.116;2023-03-11T06:53:26;-0.40;99.90
15556;DHT22;7879;48.660;9.116;2023-03-11T06:56:02;-0.30;99.90
15556;DHT22;7879;48.660;9.116;2023-03-11T06:58:30;-0.30;99.90
15556;DHT22;7879;48.660;9.116;2023-03-11T07:01:01;-0.20;99.90
15556;DHT22;7879;48.660;9.116;2023-03-11T07:03:29;-0.20;99.90
15556;DHT22;7879;48.660;9.116;2023-03-11T07:05:56;-0.20;99.90
15556;DHT22;7879;48.660;9.116;2023-03-11T07:08:24;-0.10;99.90
15556;DHT22;7879;48.660;9.116;2023-03-11T07:11:01;-0.10;99.90
15556;DHT22;7879;48.660;9.116;2023-03-11T07:13:29;0.00;99.90
15556;DHT22;7879;48.660;9.116;2023-03-11T07:16:03;0.00;99.90
15556;DHT22;7879;48.660;9.116;2023-03-11T07:18:31;0.00;99.90
15556;DHT22;7879;48.660;9.116;2023-03-11T07:20:58;0.00;99.90
15556;DHT22;7879;48.660;9.116;2023-03-11T07:23:26;0.10;99.90
15556;DHT22;7879;48.660;9.116;2023-03-11T07:25:53;0.20;99.90
15556;DHT22;7879;48.660;9.116;2023-03-11T07:28:22;0.20;99.90
15556;DHT22;7879;48.660;9.116;2023-03-11T07:30:49;0.20;99.90
15556;DHT22;7879;48.660;9.116;2023-03-11T07:33:16;0.30;99.90
15556;DHT22;7879;48.660;9.116;2023-03-11T07:35:43;0.40;99.90
15556;DHT22;7879;48.660;9.116;2023-03-11T07:38:10;0.40;99.90
15556;DHT22;7879;48.660;9.116;2023-03-11T07:40:37;0.40;99.90
15556;DHT22;7879;48.660;9.116;2023-03-11T07:43:04;0.50;99.90
15556;DHT22;7879;48.660;9.116;2023-03-11T07:45:31;0.40;99.90
15556;DHT22;7879;48.660;9.116;2023-03-11T07:47:58;0.40;99.90
15556;DHT22;7879;48.660;9.116;2023-03-11T07:50:25;0.50;99.90
15556;DHT22;7879;48.660;9.116;2023-03-11T07:52:51;0.60;99.90
15556;DHT22;7879;48.660;9.116;2023-03-11T07:55:18;0.60;99.90
15556;DHT22;7879;48.660;9.116;2023-03-11T07:57:48;0.50;99.90
15556;DHT22;7879;48.660;9.116;2023-03-11T08:00:17;0.60;99.90
15556;DHT22;7879;48.660;9.116;2023-03-11T08:02:44;0.60;99.90
15556;DHT22;7879;48.660;9.116;2023-03-11T08:05:11;0.70;99.90
15556;DHT22;7879;48.660;9.116;2023-03-11T08:07:38;0.60;99.90
15556;DHT22;7879;48.660;9.116;2023-03-11T08:10:05;0.60;99.90
15556;DHT22;7879;48.660;9.116;2023-03-11T08:12:32;0.70;99.90
15556;DHT22;7879;48.660;9.116;2023-03-11T08:14:59;0.80;99.90
15556;DHT22;7879;48.660;9.116;2023-03-11T08:17:26;0.80;99.90
15556;DHT22;7879;48.660;9.116;2023-03-11T08:19:53;0.90;99.90
15556;DHT22;7879;48.660;9.116;2023-03-11T08:22:19;0.90;99.90
15556;DHT22;7879;48.660;9.116;2023-03-11T08:24:50;1.00;99.90
15556;DHT22;7879;48.660;9.116;2023-03-11T08:27:17;0.90;99.90
15556;DHT22;7879;48.660;9.116;2023-03-11T08:29:44;1.00;99.90
15556;DHT22;7879;48.660;9.116;2023-03-11T08:32:11;1.00;99.90
15556;DHT22;7879;48.660;9.116;2023-03-11T08:34:38;1.00;99.90
15556;DHT22;7879;48.660;9.116;2023-03-11T08:37:05;1.10;99.90
15556;DHT22;7879;48.660;9.116;2023-03-11T08:39:32;1.10;99.90
15556;DHT22;7879;48.660;9.116;2023-03-11T08:41:59;1.20;99.90
15556;DHT22;7879;48.660;9.116;2023-03-11T08:44:26;1.30;99.90
15556;DHT22;7879;48.660;9.116;2023-03-11T08:46:53;1.30;99.90
15556;DHT22;7879;48.660;9.116;2023-03-11T08:49:20;1.30;99.90
15556;DHT22;7879;48.660;9.116;2023-03-11T08:51:47;1.30;99.90
15556;DHT22;7879;48.660;9.116;2023-03-11T08:54:13;1.30;99.90
15556;DHT22;7879;48.660;9.116;2023-03-11T08:56:40;1.40;99.90
15556;DHT22;7879;48.660;9.116;2023-03-11T08:59:07;1.40;99.90
15556;DHT22;7879;48.660;9.116;2023-03-11T09:01:34;1.40;99.90
15556;DHT22;7879;48.660;9.116;2023-03-11T09:04:01;1.50;99.90
15556;DHT22;7879;48.660;9.116;2023-03-11T09:06:28;1.60;99.90
15556;DHT22;7879;48.660;9.116;2023-03-11T09:08:56;1.70;99.90
15556;DHT22;7879;48.660;9.116;2023-03-11T09:11:23;1.90;99.90
15556;DHT22;7879;48.660;9.116;2023-03-11T09:13:50;2.10;99.90
15556;DHT22;7879;48.660;9.116;2023-03-11T09:16:20;2.10;99.90
15556;DHT22;7879;48.660;9.116;2023-03-11T09:18:47;2.10;99.90
15556;DHT22;7879;48.660;9.116;2023-03-11T09:21:14;2.00;99.90
15556;DHT22;7879;48.660;9.116;2023-03-11T09:23:41;1.90;99.90
15556;DHT22;7879;48.660;9.116;2023-03-11T09:26:10;1.80;99.90
15556;DHT22;7879;48.660;9.116;2023-03-11T09:28:37;1.90;99.90
15556;DHT22;7879;48.660;9.116;2023-03-11T09:31:04;1.80;99.90
15556;DHT22;7879;48.660;9.116;2023-03-11T09:33:34;2.10;99.90
15556;DHT22;7879;48.660;9.116;2023-03-11T09:36:01;2.40;99.90
15556;DHT22;7879;48.660;9.116;2023-03-11T09:38:28;2.60;99.90
15556;DHT22;7879;48.660;9.116;2023-03-11T09:46:49;3.20;99.70
15556;DHT22;7879;48.660;9.116;2023-03-11T09:52:15;2.60;99.80
15556;DHT22;7879;48.660;9.116;2023-03-11T09:54:46;2.50;99.90
15556;DHT22;7879;48.660;9.116;2023-03-11T09:57:18;2.50;99.90
15556;DHT22;7879;48.660;9.116;2023-03-11T09:59:47;2.40;99.90
15556;DHT22;7879;48.660;9.116;2023-03-11T10:02:17;2.40;99.90
15556;DHT22;7879;48.660;9.116;2023-03-11T10:07:27;2.30;99.90
15556;DHT22;7879;48.660;9.116;2023-03-11T10:09:58;2.30;99.90
15556;DHT22;7879;48.660;9.116;2023-03-11T10:18:13;2.40;99.90
15556;DHT22;7879;48.660;9.116;2023-03-11T10:20:54;2.80;99.90
15556;DHT22;7879;48.660;9.116;2023-03-11T10:26:22;3.90;99.10
15556;DHT22;7879;48.660;9.116;2023-03-11T10:28:55;3.80;98.10
15556;DHT22;7879;48.660;9.116;2023-03-11T10:31:27;4.20;98.20
15556;DHT22;7879;48.660;9.116;2023-03-11T10:33:58;4.20;97.40
15556;DHT22;7879;48.660;9.116;2023-03-11T10:36:49;4.10;98.50
15556;DHT22;7879;48.660;9.116;2023-03-11T10:39:18;4.10;98.30
15556;DHT22;7879;48.660;9.116;2023-03-11T10:42:00;4.10;98.10
15556;DHT22;7879;48.660;9.116;2023-03-11T10:46:56;4.30;96.80
15556;DHT22;7879;48.660;9.116;2023-03-11T10:49:23;4.20;97.00
15556;DHT22;7879;48.660;9.116;2023-03-11T10:51:52;4.30;98.00
15556;DHT22;7879;48.660;9.116;2023-03-11T10:54:37;4.40;96.10
15556;DHT22;7879;48.660;9.116;2023-03-11T10:57:21;4.30;97.30
15556;DHT22;7879;48.660;9.116;2023-03-11T10:59:52;4.20;99.20
15556;DHT22;7879;48.660;9.116;2023-03-11T11:05:02;4.80;98.10
15556;DHT22;7879;48.660;9.116;2023-03-11T11:07:32;5.20;98.40
15556;DHT22;7879;48.660;9.116;2023-03-11T11:10:23;5.60;96.60
15556;DHT22;7879;48.660;9.116;2023-03-11T11:12:54;5.80;95.90
15556;DHT22;7879;48.660;9.116;2023-03-11T11:15:29;6.20;96.60
15556;DHT22;7879;48.660;9.116;2023-03-11T11:20:29;6.80;96.00
15556;DHT22;7879;48.660;9.116;2023-03-11T11:23:01;7.00;95.80
15556;DHT22;7879;48.660;9.116;2023-03-11T11:25:36;7.10;94.30
15556;DHT22;7879;48.660;9.116;2023-03-11T11:28:19;7.20;94.50
15556;DHT22;7879;48.660;9.116;2023-03-11T11:33:28;7.10;91.30
15556;DHT22;7879;48.660;9.116;2023-03-11T11:35:59;6.40;90.30
15556;DHT22;7879;48.660;9.116;2023-03-11T11:38:28;6.20;90.40
15556;DHT22;7879;48.660;9.116;2023-03-11T11:40:58;6.00;92.10
15556;DHT22;7879;48.660;9.116;2023-03-11T11:46:27;5.80;91.00
15556;DHT22;7879;48.660;9.116;2023-03-11T11:49:09;5.60;91.20
15556;DHT22;7879;48.660;9.116;2023-03-11T11:51:41;5.50;91.70
15556;DHT22;7879;48.660;9.116;2023-03-11T11:54:26;5.40;92.30
15556;DHT22;7879;48.660;9.116;2023-03-11T11:56:55;5.40;92.50
15556;DHT22;7879;48.660;9.116;2023-03-11T11:59:22;5.40;92.10
15556;DHT22;7879;48.660;9.116;2023-03-11T12:07:24;5.10;90.90
15556;DHT22;7879;48.660;9.116;2023-03-11T12:26:53;6.10;90.30
15556;DHT22;7879;48.660;9.116;2023-03-11T12:32:40;6.00;90.70
15556;DHT22;7879;48.660;9.116;2023-03-11T12:35:24;6.10;90.10
15556;DHT22;7879;48.660;9.116;2023-03-11T12:40:57;5.90;90.00
15556;DHT22;7879;48.660;9.116;2023-03-11T12:46:06;5.90;90.10
15556;DHT22;7879;48.660;9.116;2023-03-11T12:48:46;5.90;89.60
15556;DHT22;7879;48.660;9.116;2023-03-11T12:54:35;6.00;90.90
15556;DHT22;7879;48.660;9.116;2023-03-11T13:05:42;6.00;89.20
15556;DHT22;7879;48.660;9.116;2023-03-11T13:10:53;5.80;85.70
15556;DHT22;7879;48.660;9.116;2023-03-11T13:18:43;5.80;90.00
15556;DHT22;7879;48.660;9.116;2023-03-11T13:40:44;6.00;87.10
15556;DHT22;7879;48.660;9.116;2023-03-11T13:43:20;6.00;86.50
15556;DHT22;7879;48.660;9.116;2023-03-11T13:46:03;6.00;87.00
15556;DHT22;7879;48.660;9.116;2023-03-11T13:48:38;6.00;87.50
15556;DHT22;7879;48.660;9.116;2023-03-11T13:51:17;6.10;90.50
15556;DHT22;7879;48.660;9.116;2023-03-11T13:54:01;6.20;90.50
15556;DHT22;7879;48.660;9.116;2023-03-11T13:56:38;6.30;90.50
15556;DHT22;7879;48.660;9.116;2023-03-11T13:59:26;6.30;90.90
15556;DHT22;7879;48.660;9.116;2023-03-11T14:01:56;6.40;89.80
15556;DHT22;7879;48.660;9.116;2023-03-11T14:04:31;6.30;87.90
15556;DHT22;7879;48.660;9.116;2023-03-11T14:06:59;6.20;88.80
15556;DHT22;7879;48.660;9.116;2023-03-11T14:09:27;6.30;90.60
15556;DHT22;7879;48.660;9.116;2023-03-11T14:12:03;6.30;90.10
15556;DHT22;7879;48.660;9.116;2023-03-11T14:14:45;6.40;88.40
15556;DHT22;7879;48.660;9.116;2023-03-11T14:17:17;6.30;84.50
15556;DHT22;7879;48.660;9.116;2023-03-11T14:20:22;6.20;85.50
15556;DHT22;7879;48.660;9.116;2023-03-11T14:22:52;6.10;88.90
15556;DHT22;7879;48.660;9.116;2023-03-11T14:25:23;6.20;86.80
15556;DHT22;7879;48.660;9.116;2023-03-11T14:27:59;6.10;86.70
15556;DHT22;7879;48.660;9.116;2023-03-11T14:30:31;6.10;88.30
15556;DHT22;7879;48.660;9.116;2023-03-11T14:33:19;6.20;87.70
15556;DHT22;7879;48.660;9.116;2023-03-11T14:35:57;6.20;87.60
15556;DHT22;7879;48.660;9.116;2023-03-11T14:38:27;6.10;88.20
15556;DHT22;7879;48.660;9.116;2023-03-11T14:41:05;6.00;86.90
15556;DHT22;7879;48.660;9.116;2023-03-11T14:43:38;6.00;90.20
15556;DHT22;7879;48.660;9.116;2023-03-11T14:46:17;6.00;89.00
15556;DHT22;7879;48.660;9.116;2023-03-11T14:48:45;6.00;87.80
15556;DHT22;7879;48.660;9.116;2023-03-11T14:51:16;6.00;87.40
15556;DHT22;7879;48.660;9.116;2023-03-11T14:53:47;5.90;85.50
15556;DHT22;7879;48.660;9.116;2023-03-11T14:56:20;5.90;86.90
15556;DHT22;7879;48.660;9.116;2023-03-11T14:59:13;6.00;88.00
15556;DHT22;7879;48.660;9.116;2023-03-11T15:01:43;6.10;88.40
15556;DHT22;7879;48.660;9.116;2023-03-11T15:06:55;6.10;87.90
15556;DHT22;7879;48.660;9.116;2023-03-11T15:09:23;6.10;88.30
15556;DHT22;7879;48.660;9.116;2023-03-11T15:11:53;6.20;89.00
15556;DHT22;7879;48.660;9.116;2023-03-11T15:14:28;6.10;86.90
15556;DHT22;7879;48.660;9.116;2023-03-11T15:19:59;6.10;87.00
15556;DHT22;7879;48.660;9.116;2023-03-11T15:22:37;6.10;87.00
15556;DHT22;7879;48.660;9.116;2023-03-11T15:25:16;6.10;85.80
15556;DHT22;7879;48.660;9.116;2023-03-11T15:27:44;6.00;86.50
15556;DHT22;7879;48.660;9.116;2023-03-11T15:30:26;6.10;88.50
15556;DHT22;7879;48.660;9.116;2023-03-11T15:32:53;6.00;89.40
15556;DHT22;7879;48.660;9.116;2023-03-11T15:35:21;6.10;90.20
15556;DHT22;7879;48.660;9.116;2023-03-11T15:37:51;6.10;90.10
15556;DHT22;7879;48.660;9.116;2023-03-11T15:40:36;6.00;89.30
15556;DHT22;7879;48.660;9.116;2023-03-11T15:45:42;6.00;90.40
15556;DHT22;7879;48.660;9.116;2023-03-11T15:48:10;6.00;90.50
15556;DHT22;7879;48.660;9.116;2023-03-11T15:50:46;5.90;90.50
15556;DHT22;7879;48.660;9.116;2023-03-11T15:53:19;5.70;90.60
15556;DHT22;7879;48.660;9.116;2023-03-11T15:55:46;5.70;90.40
15556;DHT22;7879;48.660;9.116;2023-03-11T15:58:15;5.60;90.60
15556;DHT22;7879;48.660;9.116;2023-03-11T16:00:51;5.60;90.80
15556;DHT22;7879;48.660;9.116;2023-03-11T16:03:18;5.50;91.00
15556;DHT22;7879;48.660;9.116;2023-03-11T16:05:45;5.50;91.10
15556;DHT22;7879;48.660;9.116;2023-03-11T16:08:12;5.40;91.30
15556;DHT22;7879;48.660;9.116;2023-03-11T16:10:39;5.40;91.80
15556;DHT22;7879;48.660;9.116;2023-03-11T16:13:08;5.40;91.90
15556;DHT22;7879;48.660;9.116;2023-03-11T16:15:36;5.50;92.00
15556;DHT22;7879;48.660;9.116;2023-03-11T16:18:05;5.50;91.60
15556;DHT22;7879;48.660;9.116;2023-03-11T16:20:45;5.40;92.20
15556;DHT22;7879;48.660;9.116;2023-03-11T16:23:20;5.40;92.60
15556;DHT22;7879;48.660;9.116;2023-03-11T16:25:48;5.50;92.70
15556;DHT22;7879;48.660;9.116;2023-03-11T16:28:16;5.40;92.30
15556;DHT22;7879;48.660;9.116;2023-03-11T16:30:43;5.40;92.60
15556;DHT22;7879;48.660;9.116;2023-03-11T16:33:10;5.20;92.70
15556;DHT22;7879;48.660;9.116;2023-03-11T16:35:37;5.30;92.70
15556;DHT22;7879;48.660;9.116;2023-03-11T16:38:04;5.20;92.80
15556;DHT22;7879;48.660;9.116;2023-03-11T16:40:32;5.20;92.80
15556;DHT22;7879;48.660;9.116;2023-03-11T16:43:07;5.20;93.00
15556;DHT22;7879;48.660;9.116;2023-03-11T16:45:35;5.20;93.00
15556;DHT22;7879;48.660;9.116;2023-03-11T16:48:03;5.10;93.00
15556;DHT22;7879;48.660;9.116;2023-03-11T16:50:31;5.10;93.00
15556;DHT22;7879;48.660;9.116;2023-03-11T16:52:59;5.10;92.90
15556;DHT22;7879;48.660;9.116;2023-03-11T16:55:27;5.10;93.00
15556;DHT22;7879;48.660;9.116;2023-03-11T16:57:54;5.00;93.10
15556;DHT22;7879;48.660;9.116;2023-03-11T17:00:23;5.00;93.00
15556;DHT22;7879;48.660;9.116;2023-03-11T17:02:50;4.90;93.30
15556;DHT22;7879;48.660;9.116;2023-03-11T17:05:17;5.00;93.60
15556;DHT22;7879;48.660;9.116;2023-03-11T17:07:44;5.00;93.70
15556;DHT22;7879;48.660;9.116;2023-03-11T17:10:11;5.00;93.70
15556;DHT22;7879;48.660;9.116;2023-03-11T17:12:38;4.90;93.70
15556;DHT22;7879;48.660;9.116;2023-03-11T17:15:06;4.90;93.60
15556;DHT22;7879;48.660;9.116;2023-03-11T17:17:33;4.90;93.70
15556;DHT22;7879;48.660;9.116;2023-03-11T17:20:00;4.80;93.50
15556;DHT22;7879;48.660;9.116;2023-03-11T17:22:27;4.70;93.50
15556;DHT22;7879;48.660;9.116;2023-03-11T17:24:53;4.70;93.70
15556;DHT22;7879;48.660;9.116;2023-03-11T17:27:20;4.70;93.90
15556;DHT22;7879;48.660;9.116;2023-03-11T17:29:47;4.70;93.80
15556;DHT22;7879;48.660;9.116;2023-03-11T17:32:14;4.70;93.80
15556;DHT22;7879;48.660;9.116;2023-03-11T17:34:43;4.60;93.90
15556;DHT22;7879;48.660;9.116;2023-03-11T17:37:10;4.60;93.90
15556;DHT22;7879;48.660;9.116;2023-03-11T17:39:37;4.50;94.00
15556;DHT22;7879;48.660;9.116;2023-03-11T17:42:04;4.50;94.10
15556;DHT22;7879;48.660;9.116;2023-03-11T17:44:30;4.50;94.30
15556;DHT22;7879;48.660;9.116;2023-03-11T17:47:16;4.50;94.30
15556;DHT22;7879;48.660;9.116;2023-03-11T17:49:46;4.40;94.30
15556;DHT22;7879;48.660;9.116;2023-03-11T17:52:12;4.50;94.40
15556;DHT22;7879;48.660;9.116;2023-03-11T17:54:39;4.40;94.80
15556;DHT22;7879;48.660;9.116;2023-03-11T17:57:06;4.40;95.00
15556;DHT22;7879;48.660;9.116;2023-03-11T17:59:33;4.30;95.20
15556;DHT22;7879;48.660;9.116;2023-03-11T18:02:00;4.30;95.10
15556;DHT22;7879;48.660;9.116;2023-03-11T18:04:27;4.20;95.30
15556;DHT22;7879;48.660;9.116;2023-03-11T18:06:54;4.20;95.50
15556;DHT22;7879;48.660;9.116;2023-03-11T18:09:21;4.20;95.80